Time;durP1;ratioP1;P1;durP2;ratioP2;P2;SDS_P1;SDS_P2;PMS_P1;PMS_P2;Temp;Humidity;BMP_temperature;BMP_pressure;BME280_temperature;BME280_humidity;BME280_pressure;Samples;Min_cycle;Max_cycle;Signal;HPM_P1;HPM_P2
2022/10/28 00:01:05;;;;;;;25.63;16.00;;;11.10;99.90;;;;;;5074038;28;20197;-76
2022/10/28 00:03:32;;;;;;;22.00;16.23;;;11.00;99.90;;;;;;5073667;28;20626;-76
2022/10/28 00:06:03;;;;;;;21.03;17.00;;;11.00;99.90;;;;;;5074208;28;20201;-76
2022/10/28 00:08:29;;;;;;;19.73;15.90;;;11.00;99.90;;;;;;5074122;28;20537;-76
2022/10/28 00:11:04;;;;;;;22.10;15.80;;;11.10;99.90;;;;;;5073999;28;20197;-76
2022/10/28 00:13:30;;;;;;;23.77;17.03;;;11.00;99.90;;;;;;5073855;28;20246;-75
2022/10/28 00:16:04;;;;;;;23.40;16.40;;;11.00;99.90;;;;;;5073674;28;20568;-76
2022/10/28 00:18:31;;;;;;;24.57;17.40;;;11.00;99.90;;;;;;5073920;28;20200;-76
2022/10/28 00:21:00;;;;;;;24.10;15.40;;;10.90;99.90;;;;;;5073840;28;20201;-76
2022/10/28 00:23:27;;;;;;;20.97;16.17;;;10.90;99.90;;;;;;5073541;28;20695;-76
2022/10/28 00:25:54;;;;;;;24.87;16.57;;;10.90;99.90;;;;;;5073625;28;20193;-76
2022/10/28 00:28:22;;;;;;;21.17;16.00;;;10.80;99.90;;;;;;5073557;28;20205;-76
2022/10/28 00:30:48;;;;;;;20.27;15.80;;;10.70;99.90;;;;;;5073537;28;20725;-76
2022/10/28 00:33:15;;;;;;;22.80;16.07;;;10.70;99.90;;;;;;5073567;28;20254;-76
2022/10/28 00:35:41;;;;;;;21.60;16.30;;;10.70;99.90;;;;;;5073467;28;20197;-76
2022/10/28 00:38:08;;;;;;;24.53;16.47;;;10.60;99.90;;;;;;5073461;28;20204;-76
2022/10/28 00:40:35;;;;;;;22.53;17.30;;;10.70;99.90;;;;;;5073339;28;20197;-76
2022/10/28 00:43:02;;;;;;;21.43;16.80;;;10.70;99.90;;;;;;5072322;28;20221;-76
2022/10/28 00:45:30;;;;;;;26.40;16.80;;;10.70;99.90;;;;;;5073100;28;20656;-76
2022/10/28 00:48:00;;;;;;;23.07;15.90;;;10.60;99.90;;;;;;5073362;28;20201;-76
2022/10/28 00:50:43;;;;;;;18.90;16.03;;;10.60;99.90;;;;;;5073273;28;20234;-76
2022/10/28 00:53:14;;;;;;;22.17;15.67;;;10.50;99.90;;;;;;5073097;28;20667;-76
2022/10/28 00:55:41;;;;;;;21.50;14.97;;;10.50;99.90;;;;;;5073074;28;20204;-76
2022/10/28 00:58:09;;;;;;;22.60;16.23;;;10.40;99.90;;;;;;5073307;28;20274;-76
2022/10/28 01:00:37;;;;;;;25.00;17.63;;;10.40;99.90;;;;;;5073123;28;20201;-76
2022/10/28 01:03:04;;;;;;;20.00;16.13;;;10.50;99.90;;;;;;5072639;28;20618;-76
2022/10/28 01:05:34;;;;;;;19.47;15.90;;;10.40;99.90;;;;;;5072941;28;20193;-76
2022/10/28 01:08:03;;;;;;;19.77;14.67;;;10.40;99.90;;;;;;5072836;28;20193;-76
2022/10/28 01:10:50;;;;;;;24.67;16.80;;;10.30;99.90;;;;;;5073094;28;20255;-76
2022/10/28 01:13:26;;;;;;;20.57;15.37;;;10.30;99.90;;;;;;5072904;28;20652;-76
2022/10/28 01:15:58;;;;;;;18.17;15.90;;;10.30;99.90;;;;;;5072907;28;20545;-76
2022/10/28 01:18:37;;;;;;;20.80;15.90;;;10.30;99.90;;;;;;5072832;28;20204;-76
2022/10/28 01:21:25;;;;;;;24.33;17.67;;;10.30;99.90;;;;;;5073106;28;20200;-76
2022/10/28 01:24:12;;;;;;;20.33;16.33;;;10.40;99.90;;;;;;5072788;28;20263;-76
2022/10/28 01:27:03;;;;;;;25.33;16.23;;;10.40;99.90;;;;;;5072694;28;20252;-76
2022/10/28 01:29:55;;;;;;;19.80;15.20;;;10.40;99.90;;;;;;5072951;28;20201;-76
2022/10/28 01:32:32;;;;;;;19.73;15.97;;;10.40;99.90;;;;;;5072761;28;20258;-76
2022/10/28 01:35:07;;;;;;;26.60;16.23;;;10.40;99.90;;;;;;5072735;28;20200;-76
2022/10/28 01:37:37;;;;;;;20.37;16.57;;;10.50;99.90;;;;;;5072866;28;20192;-76
2022/10/28 01:40:10;;;;;;;19.90;16.10;;;10.50;99.90;;;;;;5072737;28;20201;-76
2022/10/28 01:42:43;;;;;;;19.93;16.43;;;10.50;99.90;;;;;;5072650;28;20638;-76
2022/10/28 01:45:15;;;;;;;22.53;16.20;;;10.60;99.90;;;;;;5072625;28;20254;-75
2022/10/28 01:47:49;;;;;;;21.77;16.83;;;10.50;99.90;;;;;;5072543;28;20201;-76
2022/10/28 01:50:21;;;;;;;25.63;16.87;;;10.50;99.90;;;;;;5072515;28;20197;-76
2022/10/28 01:52:49;;;;;;;23.13;17.53;;;10.50;99.90;;;;;;5072702;28;20243;-76
2022/10/28 01:55:20;;;;;;;26.47;16.90;;;10.50;99.90;;;;;;5075028;28;20266;-76
2022/10/28 01:57:50;;;;;;;22.33;18.20;;;10.50;99.90;;;;;;5076457;28;20201;-76
2022/10/28 02:00:17;;;;;;;25.10;17.67;;;10.50;99.90;;;;;;5076890;28;20197;-76
2022/10/28 02:02:47;;;;;;;26.20;19.30;;;10.50;99.90;;;;;;5076411;28;20282;-76
2022/10/28 02:05:43;;;;;;;26.90;18.63;;;10.50;99.90;;;;;;5076137;28;20228;-76
2022/10/28 02:08:39;;;;;;;23.43;18.13;;;10.60;99.90;;;;;;5076349;28;20196;-76
2022/10/28 02:11:33;;;;;;;25.23;17.07;;;10.60;99.90;;;;;;5071065;28;20545;-76
2022/10/28 02:14:11;;;;;;;23.93;17.67;;;10.50;99.90;;;;;;5076261;28;20204;-76
2022/10/28 02:16:46;;;;;;;22.33;16.87;;;10.50;99.90;;;;;;5076061;28;20255;-76
2022/10/28 02:19:23;;;;;;;28.43;17.40;;;10.40;99.90;;;;;;5076178;28;20196;-76
2022/10/28 02:22:01;;;;;;;23.87;17.17;;;10.30;99.90;;;;;;5075951;28;20238;-76
2022/10/28 02:24:38;;;;;;;22.43;17.10;;;10.40;99.90;;;;;;5075974;28;20266;-76
2022/10/28 02:27:12;;;;;;;21.13;15.67;;;10.40;99.90;;;;;;5075805;28;20246;-76
2022/10/28 02:29:45;;;;;;;18.80;15.33;;;10.30;99.90;;;;;;5075842;28;20643;-76
2022/10/28 02:32:17;;;;;;;19.23;16.20;;;10.30;99.90;;;;;;5075718;28;20204;-76
2022/10/28 02:34:48;;;;;;;24.40;15.40;;;10.30;99.90;;;;;;5075853;28;20201;-76
2022/10/28 02:37:20;;;;;;;20.30;15.07;;;10.30;99.90;;;;;;5075663;28;20200;-76
2022/10/28 02:39:52;;;;;;;18.30;13.97;;;10.30;99.90;;;;;;5075617;28;20201;-76
2022/10/28 02:42:23;;;;;;;24.50;15.30;;;10.30;99.90;;;;;;5075848;28;20201;-76
2022/10/28 02:44:56;;;;;;;20.77;13.90;;;10.30;99.90;;;;;;5075724;28;20288;-76
2022/10/28 02:47:26;;;;;;;18.63;14.50;;;10.10;99.90;;;;;;5075680;28;20226;-76
2022/10/28 02:49:58;;;;;;;20.73;15.47;;;10.10;99.90;;;;;;5075563;28;20274;-76
2022/10/28 02:52:28;;;;;;;23.83;15.40;;;10.10;99.90;;;;;;5075594;28;20213;-76
2022/10/28 02:54:57;;;;;;;19.77;15.53;;;10.10;99.90;;;;;;5075627;28;20204;-76
2022/10/28 02:57:27;;;;;;;20.77;15.53;;;10.10;99.90;;;;;;5075457;28;20243;-76
2022/10/28 02:59:55;;;;;;;22.67;16.03;;;10.10;99.90;;;;;;5075416;28;20255;-76
2022/10/28 03:02:23;;;;;;;24.93;15.43;;;10.10;99.90;;;;;;5075293;28;20254;-75
2022/10/28 03:04:49;;;;;;;20.13;14.97;;;10.10;99.90;;;;;;5074922;28;20600;-76
2022/10/28 03:07:17;;;;;;;20.47;15.70;;;10.00;99.90;;;;;;5074203;28;20704;-76
2022/10/28 03:09:44;;;;;;;19.13;16.27;;;10.00;99.90;;;;;;5075324;28;20247;-76
2022/10/28 03:12:11;;;;;;;20.23;15.37;;;9.90;99.90;;;;;;5075287;28;20196;-76
2022/10/28 03:14:38;;;;;;;21.47;15.87;;;10.00;99.90;;;;;;5075080;28;20242;-76
2022/10/28 03:17:06;;;;;;;19.83;16.63;;;10.00;99.90;;;;;;5074939;28;20197;-76
2022/10/28 03:19:33;;;;;;;20.33;16.10;;;10.00;99.90;;;;;;5075445;28;20201;-76
2022/10/28 03:21:59;;;;;;;25.90;16.37;;;9.90;99.90;;;;;;5075052;28;20200;-76
2022/10/28 03:24:27;;;;;;;21.50;16.10;;;9.90;99.90;;;;;;5074964;28;20224;-76
2022/10/28 03:26:54;;;;;;;20.70;16.23;;;9.90;99.90;;;;;;5074780;28;20197;-76
2022/10/28 03:29:21;;;;;;;23.63;17.63;;;9.90;99.90;;;;;;5074868;28;20196;-76
2022/10/28 03:31:47;;;;;;;22.30;17.00;;;9.90;99.90;;;;;;5074630;28;20197;-76
2022/10/28 03:34:14;;;;;;;21.23;16.33;;;9.80;99.90;;;;;;5074552;28;20532;-75
2022/10/28 03:36:41;;;;;;;20.03;16.60;;;9.80;99.90;;;;;;5074780;28;20201;-76
2022/10/28 03:39:07;;;;;;;26.77;16.57;;;9.80;99.90;;;;;;5074693;28;20346;-76
2022/10/28 03:41:35;;;;;;;24.43;18.17;;;9.80;99.90;;;;;;5074659;28;20250;-76
2022/10/28 03:44:02;;;;;;;27.17;18.27;;;9.80;99.90;;;;;;5074478;28;20274;-76
2022/10/28 03:46:28;;;;;;;23.33;17.27;;;9.80;99.90;;;;;;5074504;28;20197;-76
2022/10/28 03:48:55;;;;;;;25.50;17.37;;;9.80;99.90;;;;;;5074475;28;20652;-76
2022/10/28 03:51:22;;;;;;;24.27;17.70;;;9.80;99.90;;;;;;5074656;28;20340;-76
2022/10/28 03:53:48;;;;;;;24.40;16.80;;;9.80;99.90;;;;;;5074450;28;20231;-76
2022/10/28 03:56:15;;;;;;;25.23;17.97;;;9.70;99.90;;;;;;5074244;28;20193;-76
2022/10/28 03:58:43;;;;;;;23.00;17.37;;;9.70;99.90;;;;;;5074144;28;20274;-76
2022/10/28 04:01:09;;;;;;;22.77;16.97;;;9.70;99.90;;;;;;5074054;28;20274;-75
2022/10/28 04:03:36;;;;;;;23.47;16.73;;;9.70;99.90;;;;;;5074019;28;20344;-76
2022/10/28 04:06:03;;;;;;;23.57;17.10;;;9.70;99.90;;;;;;5074021;28;20646;-76
2022/10/28 04:08:29;;;;;;;27.73;18.73;;;9.70;99.90;;;;;;5074135;28;20598;-75
2022/10/28 04:10:56;;;;;;;26.67;17.20;;;9.70;99.90;;;;;;5073929;28;20197;-76
2022/10/28 04:13:23;;;;;;;24.10;17.37;;;9.70;99.90;;;;;;5073745;28;20274;-75
2022/10/28 04:15:51;;;;;;;22.87;16.73;;;9.60;99.90;;;;;;5073961;28;20266;-75
2022/10/28 04:18:17;;;;;;;20.00;16.17;;;9.60;99.90;;;;;;5073771;28;20278;-76
2022/10/28 04:20:45;;;;;;;22.30;16.57;;;9.60;99.90;;;;;;5073538;28;20583;-76
2022/10/28 04:23:15;;;;;;;24.07;17.23;;;9.70;99.90;;;;;;5073648;28;20254;-76
2022/10/28 04:25:42;;;;;;;26.57;17.47;;;9.80;99.90;;;;;;5073845;28;20237;-76
2022/10/28 04:28:08;;;;;;;21.33;16.63;;;9.80;99.90;;;;;;5073468;28;20197;-76
2022/10/28 04:30:35;;;;;;;21.07;16.50;;;9.80;99.90;;;;;;5073493;28;20247;-76
2022/10/28 04:33:03;;;;;;;23.83;17.17;;;9.70;99.90;;;;;;5073596;28;20205;-76
2022/10/28 04:35:30;;;;;;;26.10;17.07;;;9.70;99.90;;;;;;5073547;28;20208;-76
2022/10/28 04:37:56;;;;;;;25.27;17.30;;;9.70;99.90;;;;;;5073366;28;20200;-76
2022/10/28 04:40:23;;;;;;;23.63;15.73;;;9.80;99.90;;;;;;5073332;28;20254;-76
2022/10/28 04:42:49;;;;;;;23.67;16.20;;;9.80;99.90;;;;;;5073342;28;20208;-76
2022/10/28 04:45:16;;;;;;;24.13;16.50;;;9.80;99.90;;;;;;5073342;28;20229;-75
2022/10/28 04:47:43;;;;;;;24.17;16.53;;;9.90;99.90;;;;;;5073277;28;20439;-76
2022/10/28 04:50:11;;;;;;;19.53;15.67;;;9.90;99.90;;;;;;5073282;28;20246;-76
2022/10/28 04:52:37;;;;;;;21.13;15.47;;;10.00;99.90;;;;;;5073117;28;20254;-76
2022/10/28 04:55:05;;;;;;;23.23;15.70;;;10.00;99.90;;;;;;5073061;28;20247;-76
2022/10/28 04:57:31;;;;;;;22.23;17.27;;;10.10;99.90;;;;;;5073206;28;20198;-76
2022/10/28 04:59:58;;;;;;;24.67;18.37;;;10.10;99.90;;;;;;5073225;28;20274;-76
2022/10/28 05:02:25;;;;;;;24.13;17.80;;;10.20;99.90;;;;;;5072902;28;20705;-76
2022/10/28 05:04:51;;;;;;;27.13;18.13;;;10.20;99.90;;;;;;5080609;28;20232;-75
2022/10/28 05:07:19;;;;;;;22.13;18.20;;;10.20;99.90;;;;;;5090236;28;20249;-75
2022/10/28 05:09:46;;;;;;;25.30;18.33;;;10.30;99.90;;;;;;5093198;28;20196;-75
2022/10/28 05:12:12;;;;;;;23.07;17.90;;;10.30;99.90;;;;;;5093378;28;20609;-75
2022/10/28 05:14:39;;;;;;;26.80;18.67;;;10.30;99.90;;;;;;5090777;28;20212;-75
2022/10/28 05:17:06;;;;;;;29.27;18.83;;;10.30;99.90;;;;;;5083657;28;20221;-75
2022/10/28 05:19:32;;;;;;;29.13;19.40;;;10.20;99.90;;;;;;5080685;28;20593;-75
2022/10/28 05:21:59;;;;;;;27.37;19.37;;;10.30;99.90;;;;;;5082549;28;20247;-75
2022/10/28 05:24:27;;;;;;;40.10;25.73;;;10.30;99.90;;;;;;5086894;28;20220;-75
2022/10/28 05:26:54;;;;;;;37.00;23.13;;;10.20;99.90;;;;;;5092990;28;20245;-75
2022/10/28 05:29:20;;;;;;;31.53;22.53;;;10.20;99.90;;;;;;5092451;28;20230;-75
2022/10/28 05:31:47;;;;;;;26.70;22.13;;;10.20;99.90;;;;;;5092827;28;20246;-75
2022/10/28 05:34:14;;;;;;;35.07;23.23;;;10.30;99.90;;;;;;5092786;28;20208;-75
2022/10/28 05:36:40;;;;;;;32.30;22.90;;;10.30;99.90;;;;;;5092637;28;20196;-76
2022/10/28 05:39:07;;;;;;;37.30;21.80;;;10.30;99.90;;;;;;5093042;28;20222;-75
2022/10/28 05:41:35;;;;;;;36.43;21.67;;;10.40;99.90;;;;;;5092954;28;20257;-74
2022/10/28 05:44:01;;;;;;;28.87;20.40;;;10.40;99.90;;;;;;5092646;28;20310;-75
2022/10/28 05:46:28;;;;;;;30.10;20.07;;;10.40;99.90;;;;;;5092714;28;20651;-75
2022/10/28 05:48:55;;;;;;;25.67;19.70;;;10.50;99.90;;;;;;5089165;28;20599;-75
2022/10/28 05:51:21;;;;;;;25.77;18.73;;;10.50;99.90;;;;;;5092284;28;20200;-75
2022/10/28 05:53:50;;;;;;;24.30;19.20;;;10.60;99.90;;;;;;5092601;28;20196;-75
2022/10/28 05:56:16;;;;;;;26.63;18.13;;;10.60;99.90;;;;;;5092669;28;20303;-75
2022/10/28 05:58:44;;;;;;;28.70;18.07;;;10.60;99.90;;;;;;5092507;28;20196;-75
2022/10/28 06:01:11;;;;;;;26.17;17.10;;;10.70;99.90;;;;;;5092308;28;20250;-75
2022/10/28 06:03:38;;;;;;;22.50;16.90;;;10.70;99.90;;;;;;5092196;28;20232;-75
2022/10/28 06:06:04;;;;;;;20.63;16.03;;;10.70;99.90;;;;;;5092407;28;20201;-75
2022/10/28 06:08:31;;;;;;;22.23;16.60;;;10.80;99.90;;;;;;5092521;28;20423;-76
2022/10/28 06:10:58;;;;;;;19.63;16.23;;;10.80;99.90;;;;;;5092675;28;20200;-75
2022/10/28 06:13:25;;;;;;;20.57;15.80;;;10.80;99.90;;;;;;5092490;28;20200;-75
2022/10/28 06:15:53;;;;;;;24.27;16.63;;;10.90;99.90;;;;;;5092126;28;20207;-75
2022/10/28 06:18:20;;;;;;;27.03;16.43;;;10.90;99.90;;;;;;5086103;28;20239;-76
2022/10/28 06:20:52;;;;;;;21.83;16.20;;;10.90;99.90;;;;;;5072219;28;20250;-76
2022/10/28 06:23:19;;;;;;;28.13;15.63;;;11.00;99.90;;;;;;5071998;28;20288;-76
2022/10/28 06:25:46;;;;;;;22.93;14.20;;;11.00;99.90;;;;;;5071967;28;20630;-75
2022/10/28 06:28:12;;;;;;;22.70;15.23;;;11.00;99.90;;;;;;5071970;28;20197;-75
2022/10/28 06:30:39;;;;;;;19.50;14.10;;;11.00;99.90;;;;;;5072057;28;20197;-75
2022/10/28 06:33:07;;;;;;;21.20;14.47;;;11.00;99.90;;;;;;5071895;28;20197;-76
2022/10/28 06:35:34;;;;;;;21.40;13.83;;;11.10;99.90;;;;;;5072043;28;20205;-75
2022/10/28 06:38:00;;;;;;;20.40;13.13;;;11.10;99.90;;;;;;5072087;28;20247;-75
2022/10/28 06:40:28;;;;;;;17.37;13.80;;;11.20;99.90;;;;;;5072039;28;20193;-76
2022/10/28 06:42:57;;;;;;;33.73;18.97;;;11.20;99.90;;;;;;5075125;28;20295;-75
2022/10/28 06:45:24;;;;;;;30.17;16.57;;;11.20;99.90;;;;;;5075427;28;20731;-75
2022/10/28 06:47:55;;;;;;;26.53;14.80;;;11.30;99.90;;;;;;5075387;28;20193;-76
2022/10/28 06:50:24;;;;;;;24.40;15.33;;;11.30;99.90;;;;;;5075553;28;20296;-76
2022/10/28 06:52:50;;;;;;;23.20;14.80;;;11.30;99.90;;;;;;5075427;28;20329;-76
2022/10/28 06:55:17;;;;;;;21.67;14.33;;;11.30;99.90;;;;;;5075266;28;20201;-76
2022/10/28 06:57:44;;;;;;;23.40;14.57;;;11.30;99.90;;;;;;5075159;28;20255;-75
2022/10/28 07:00:12;;;;;;;22.67;14.60;;;11.40;99.90;;;;;;5075066;28;20197;-76
2022/10/28 07:02:38;;;;;;;20.17;14.13;;;11.40;99.90;;;;;;5075279;28;20204;-75
2022/10/28 07:05:06;;;;;;;19.47;13.37;;;11.40;99.90;;;;;;5074857;28;20244;-76
2022/10/28 07:07:36;;;;;;;18.87;11.50;;;11.50;99.90;;;;;;5075029;28;20702;-75
2022/10/28 07:10:02;;;;;;;16.43;11.90;;;11.50;99.90;;;;;;5074924;28;20207;-76
2022/10/28 07:12:29;;;;;;;15.47;11.27;;;11.50;99.90;;;;;;5075032;28;20197;-76
2022/10/28 07:14:56;;;;;;;14.57;11.50;;;11.50;99.90;;;;;;5075124;28;20193;-76
2022/10/28 07:17:23;;;;;;;16.90;11.40;;;11.60;99.90;;;;;;5075119;28;20256;-76
2022/10/28 07:19:50;;;;;;;14.07;11.13;;;11.60;99.90;;;;;;5074843;28;20223;-77
2022/10/28 07:22:16;;;;;;;15.57;11.20;;;11.80;99.90;;;;;;5074860;28;20196;-78
2022/10/28 07:24:44;;;;;;;15.63;10.67;;;11.90;99.90;;;;;;5074612;28;20247;-77
2022/10/28 07:27:11;;;;;;;19.17;11.37;;;12.10;99.90;;;;;;5074674;28;20197;-77
2022/10/28 07:29:38;;;;;;;13.27;10.53;;;12.30;99.90;;;;;;5074827;28;20197;-77
2022/10/28 07:32:05;;;;;;;13.13;10.40;;;12.40;99.90;;;;;;5074657;28;20197;-78
2022/10/28 07:34:31;;;;;;;17.80;9.77;;;12.60;99.90;;;;;;5074485;28;20197;-77
2022/10/28 07:36:58;;;;;;;12.33;9.50;;;12.80;99.90;;;;;;5074589;28;20223;-77
2022/10/28 07:39:25;;;;;;;14.83;9.23;;;13.10;99.90;;;;;;5074348;28;20243;-77
2022/10/28 07:41:53;;;;;;;15.40;9.43;;;13.40;99.90;;;;;;5074518;28;20324;-77
2022/10/28 07:44:20;;;;;;;14.17;8.80;;;13.70;99.90;;;;;;5074999;28;20213;-91
2022/10/28 07:46:46;;;;;;;13.93;9.60;;;13.90;99.90;;;;;;5077593;28;20193;-75
2022/10/28 07:49:13;;;;;;;14.80;8.90;;;14.10;99.90;;;;;;5074211;28;20197;-78
2022/10/28 07:51:39;;;;;;;13.47;8.50;;;14.20;99.90;;;;;;5073987;28;20247;-78
2022/10/28 07:54:06;;;;;;;13.73;8.67;;;14.40;99.90;;;;;;5074063;28;20205;-77
2022/10/28 07:56:33;;;;;;;15.10;8.73;;;14.50;99.90;;;;;;5074312;28;20201;-78
2022/10/28 07:59:01;;;;;;;11.97;8.83;;;14.60;99.90;;;;;;5074269;28;20204;-77
2022/10/28 08:01:28;;;;;;;9.00;7.93;;;14.70;99.90;;;;;;5074112;28;20259;-78
2022/10/28 08:03:54;;;;;;;12.77;8.15;;;14.90;99.90;;;;;;5073589;28;20386;-78
2022/10/28 08:06:21;;;;;;;11.55;8.68;;;14.90;99.90;;;;;;5073454;28;20286;-78
2022/10/28 08:08:52;;;;;;;12.53;8.50;;;14.90;99.90;;;;;;5073652;28;20266;-77
2022/10/28 08:11:21;;;;;;;16.23;8.45;;;15.00;99.90;;;;;;5073965;28;20204;-77
2022/10/28 08:13:48;;;;;;;10.93;7.63;;;15.20;99.90;;;;;;5073804;28;20201;-78
2022/10/28 08:16:16;;;;;;;14.25;7.90;;;15.30;99.90;;;;;;5073706;28;20205;-77
2022/10/28 08:18:44;;;;;;;16.50;8.65;;;15.50;99.90;;;;;;5073489;28;20656;-77
2022/10/28 08:21:12;;;;;;;13.27;7.95;;;15.70;99.90;;;;;;5073526;28;20400;-77
2022/10/28 08:23:40;;;;;;;16.67;8.02;;;15.90;99.90;;;;;;5073352;28;20670;-77
2022/10/28 08:26:07;;;;;;;14.07;7.70;;;16.00;99.90;;;;;;5073430;28;20236;-78
2022/10/28 08:28:33;;;;;;;9.27;7.70;;;16.30;99.90;;;;;;5073365;28;20208;-77
2022/10/28 08:31:02;;;;;;;15.38;7.97;;;16.60;99.90;;;;;;5073503;28;20197;-77
2022/10/28 08:33:31;;;;;;;13.15;7.53;;;16.90;99.90;;;;;;5073426;28;20205;-77
2022/10/28 08:35:57;;;;;;;14.40;7.68;;;16.90;99.90;;;;;;5073203;28;20716;-77
2022/10/28 08:38:24;;;;;;;13.13;7.25;;;17.00;99.90;;;;;;5073597;28;20197;-77
2022/10/28 08:40:58;;;;;;;11.18;7.60;;;17.10;99.90;;;;;;5073387;28;20197;-77
2022/10/28 08:43:34;;;;;;;11.10;7.38;;;17.20;99.90;;;;;;5073218;28;20199;-78
2022/10/28 08:46:10;;;;;;;9.82;7.28;;;17.30;99.90;;;;;;5073087;28;20760;-77
2022/10/28 08:48:39;;;;;;;10.15;6.93;;;17.30;99.90;;;;;;5073118;28;20222;-77
2022/10/28 08:51:12;;;;;;;12.40;6.70;;;17.40;99.90;;;;;;5073170;28;20733;-77
2022/10/28 08:53:44;;;;;;;10.95;7.07;;;17.30;99.90;;;;;;5073345;28;20197;-76
2022/10/28 08:56:15;;;;;;;11.45;6.93;;;17.50;99.90;;;;;;5073140;28;20242;-77
2022/10/28 08:58:44;;;;;;;10.90;6.63;;;18.10;99.90;;;;;;5073064;28;20197;-76
2022/10/28 09:01:20;;;;;;;9.38;6.32;;;18.70;99.90;;;;;;5073372;28;20193;-76
2022/10/28 09:03:52;;;;;;;12.55;6.03;;;19.20;99.90;;;;;;5072219;28;20282;-75
2022/10/28 09:06:19;;;;;;;15.48;6.03;;;19.30;99.90;;;;;;5073076;28;20606;-75
2022/10/28 09:08:49;;;;;;;12.55;5.90;;;19.40;99.90;;;;;;5072881;28;20193;-75
2022/10/28 09:11:29;;;;;;;9.77;6.20;;;19.40;99.90;;;;;;5072760;28;20705;-75
2022/10/28 09:14:09;;;;;;;11.43;5.47;;;19.50;99.90;;;;;;5073101;28;20200;-75
2022/10/28 09:16:44;;;;;;;10.70;5.80;;;19.50;99.90;;;;;;5072955;28;20200;-76
2022/10/28 09:19:25;;;;;;;11.60;6.05;;;19.70;99.90;;;;;;5072785;28;20196;-76
2022/10/28 09:22:01;;;;;;;11.55;5.78;;;20.20;99.90;;;;;;5072746;28;20717;-76
2022/10/28 09:24:40;;;;;;;9.38;5.22;;;20.30;99.90;;;;;;5072726;28;20200;-76
2022/10/28 09:27:13;;;;;;;10.00;5.30;;;20.40;99.90;;;;;;5072620;28;20230;-76
2022/10/28 09:29:50;;;;;;;7.15;4.90;;;20.30;99.90;;;;;;5072637;28;20206;-76
2022/10/28 09:32:23;;;;;;;9.73;5.78;;;20.20;99.90;;;;;;5072568;28;20246;-76
2022/10/28 09:34:56;;;;;;;11.13;5.85;;;20.90;99.90;;;;;;5072706;28;20275;-77
2022/10/28 09:37:27;;;;;;;9.77;5.50;;;21.80;99.90;;;;;;5072775;28;20591;-76
2022/10/28 09:39:59;;;;;;;12.80;5.32;;;22.40;99.90;;;;;;5072709;28;20197;-76
2022/10/28 09:42:29;;;;;;;8.50;5.20;;;22.10;99.90;;;;;;5072434;28;20200;-76
2022/10/28 09:45:00;;;;;;;9.88;5.00;;;21.20;99.90;;;;;;5072556;28;20225;-76
2022/10/28 09:47:31;;;;;;;12.10;5.55;;;21.00;99.90;;;;;;5072601;28;20270;-76
2022/10/28 09:50:04;;;;;;;8.90;5.78;;;20.90;99.90;;;;;;5072439;28;20197;-76
2022/10/28 09:52:35;;;;;;;9.88;5.32;;;21.20;99.90;;;;;;5072416;28;20651;-77
2022/10/28 09:55:08;;;;;;;9.20;5.38;;;22.10;99.90;;;;;;5072397;28;20201;-76
2022/10/28 09:57:35;;;;;;;8.75;5.03;;;22.20;99.90;;;;;;5072486;28;20208;-77
2022/10/28 10:00:02;;;;;;;7.75;4.97;;;23.10;99.90;;;;;;5072588;28;20666;-77
2022/10/28 10:02:30;;;;;;;8.18;4.93;;;23.40;99.90;;;;;;5072548;28;20447;-77
2022/10/28 10:05:00;;;;;;;11.93;4.78;;;23.60;99.90;;;;;;5072135;28;20328;-77
2022/10/28 10:07:34;;;;;;;12.65;4.78;;;23.90;99.90;;;;;;5072492;28;20201;-77
2022/10/28 10:10:06;;;;;;;9.50;4.70;;;24.70;99.90;;;;;;5072567;28;20660;-77
2022/10/28 10:12:33;;;;;;;7.60;5.18;;;24.90;99.90;;;;;;5073067;28;20197;-77
2022/10/28 10:15:01;;;;;;;8.65;4.80;;;26.10;99.90;;;;;;5072872;28;20197;-77
2022/10/28 10:17:34;;;;;;;10.65;4.38;;;26.20;99.90;;;;;;5075806;28;20667;-77
2022/10/28 10:20:06;;;;;;;9.05;4.53;;;26.20;99.90;;;;;;5075663;28;20613;-77
2022/10/28 10:22:35;;;;;;;7.22;4.30;;;24.80;99.90;;;;;;5075975;28;20243;-77
2022/10/28 10:25:02;;;;;;;11.90;4.63;;;24.80;99.90;;;;;;5075850;28;20213;-76
2022/10/28 10:27:30;;;;;;;10.57;4.20;;;24.00;99.90;;;;;;5075709;28;20656;-77
2022/10/28 10:29:58;;;;;;;10.00;4.10;;;23.90;99.90;;;;;;5075815;28;20197;-78
2022/10/28 10:32:27;;;;;;;7.22;3.95;;;23.80;99.90;;;;;;5075691;28;20197;-77
2022/10/28 10:35:00;;;;;;;6.43;4.47;;;23.90;99.90;;;;;;5075626;28;20205;-77
2022/10/28 10:37:30;;;;;;;7.30;4.10;;;25.60;99.90;;;;;;5075729;28;20197;-77
2022/10/28 10:40:12;;;;;;;8.13;4.45;;;25.90;99.90;;;;;;5075733;28;20201;-77
2022/10/28 10:42:38;;;;;;;10.25;4.60;;;26.80;99.90;;;;;;5075629;28;20201;-76
2022/10/28 10:45:21;;;;;;;8.20;3.92;;;28.10;99.90;;;;;;5076009;28;20200;-77
2022/10/28 10:47:47;;;;;;;7.40;4.22;;;29.00;99.90;;;;;;5075417;28;20196;-76
2022/10/28 10:50:23;;;;;;;11.52;3.75;;;30.50;99.90;;;;;;5077549;28;20204;-76
2022/10/28 10:52:54;;;;;;;5.18;3.38;;;29.40;99.80;;;;;;5075259;28;20201;-76
2022/10/28 10:55:27;;;;;;;9.73;4.45;;;28.90;99.70;;;;;;5074703;28;20257;-77
2022/10/28 10:57:54;;;;;;;8.57;3.78;;;28.60;99.00;;;;;;5072738;28;20729;-76
2022/10/28 11:00:24;;;;;;;6.30;3.30;;;29.40;98.90;;;;;;5073336;28;20442;-75
2022/10/28 11:02:51;;;;;;;8.93;3.60;;;30.00;97.00;;;;;;5074098;28;20205;-77
2022/10/28 11:05:22;;;;;;;9.95;3.83;;;31.10;95.60;;;;;;5073397;28;20228;-77
2022/10/28 11:07:51;;;;;;;6.97;3.58;;;31.00;93.80;;;;;;5073749;28;20201;-75
2022/10/28 11:10:23;;;;;;;8.63;3.70;;;31.70;93.70;;;;;;5073868;28;20204;-76
2022/10/28 11:12:52;;;;;;;7.03;3.58;;;31.80;92.30;;;;;;5075162;28;20207;-75
2022/10/28 11:15:25;;;;;;;4.90;3.30;;;29.40;92.40;;;;;;5075049;28;20197;-78
2022/10/28 11:17:58;;;;;;;7.82;3.55;;;29.50;91.90;;;;;;5074887;28;20196;-76
2022/10/28 11:20:29;;;;;;;6.70;3.60;;;29.70;92.20;;;;;;5074779;28;20197;-76
2022/10/28 11:23:10;;;;;;;6.05;3.63;;;30.40;91.40;;;;;;5074800;28;20205;-76
2022/10/28 11:25:39;;;;;;;10.82;3.40;;;29.10;91.80;;;;;;5074799;28;20216;-77
2022/10/28 11:28:32;;;;;;;9.63;3.25;;;28.80;92.50;;;;;;5073775;28;20568;-77
2022/10/28 11:31:10;;;;;;;7.80;3.55;;;27.70;92.40;;;;;;5074530;28;20216;-76
2022/10/28 11:33:45;;;;;;;5.68;3.40;;;26.90;94.20;;;;;;5074807;28;20200;-74
2022/10/28 11:36:21;;;;;;;7.55;3.17;;;26.40;94.30;;;;;;5074766;28;20204;-77
2022/10/28 11:39:06;;;;;;;5.50;3.17;;;26.70;94.60;;;;;;5074468;28;20608;-76
2022/10/28 11:41:43;;;;;;;5.13;2.97;;;29.90;92.30;;;;;;5074478;28;20201;-77
2022/10/28 11:44:23;;;;;;;5.97;3.47;;;30.80;90.00;;;;;;5078049;28;20191;-78
2022/10/28 11:47:01;;;;;;;6.22;3.63;;;27.80;91.20;;;;;;5074240;28;20228;-76
2022/10/28 11:49:57;;;;;;;10.07;3.40;;;28.90;92.20;;;;;;5074265;28;20201;-78
2022/10/28 11:52:38;;;;;;;9.57;3.25;;;28.90;90.70;;;;;;5074435;28;20224;-77
2022/10/28 11:55:22;;;;;;;8.07;3.47;;;29.00;91.50;;;;;;5074433;28;20201;-77
2022/10/28 11:58:04;;;;;;;7.43;3.78;;;28.50;90.00;;;;;;5074167;28;20201;-77
2022/10/28 12:00:43;;;;;;;7.00;3.92;;;27.70;91.70;;;;;;5074216;28;20204;-76
2022/10/28 12:03:33;;;;;;;7.65;3.50;;;29.50;90.80;;;;;;5074007;28;20193;-76
2022/10/28 12:06:09;;;;;;;8.35;3.45;;;31.20;88.80;;;;;;5073734;28;20217;-75
2022/10/28 12:08:49;;;;;;;5.90;3.20;;;33.10;83.70;;;;;;5073883;28;20200;-78
2022/10/28 12:11:31;;;;;;;4.55;3.30;;;32.90;81.00;;;;;;5074033;28;20204;-75
2022/10/28 12:14:07;;;;;;;7.85;3.60;;;30.60;83.30;;;;;;5073963;28;20200;-77
2022/10/28 12:16:40;;;;;;;12.00;3.90;;;28.90;86.30;;;;;;5073700;28;20196;-79
2022/10/28 12:19:13;;;;;;;8.32;3.60;;;27.70;90.00;;;;;;5072752;28;20235;-77
2022/10/28 12:21:44;;;;;;;7.40;3.78;;;26.50;91.50;;;;;;5073117;28;20247;-77
2022/10/28 12:24:14;;;;;;;8.18;3.10;;;25.80;93.00;;;;;;5073180;28;20247;-79
2022/10/28 12:26:45;;;;;;;5.15;3.40;;;25.50;93.60;;;;;;5073124;28;20221;-77
2022/10/28 12:29:19;;;;;;;7.43;3.55;;;25.10;94.90;;;;;;5073308;28;20250;-77
2022/10/28 12:31:50;;;;;;;7.35;3.38;;;24.90;95.50;;;;;;5073702;28;20197;-78
2022/10/28 12:34:22;;;;;;;10.00;3.72;;;24.70;96.00;;;;;;5073716;28;20599;-78
2022/10/28 12:36:54;;;;;;;4.63;2.80;;;24.40;96.80;;;;;;5073526;28;20224;-78
2022/10/28 12:39:25;;;;;;;6.13;2.88;;;24.20;96.80;;;;;;5073337;28;20196;-78
2022/10/28 12:41:59;;;;;;;6.97;3.30;;;23.90;97.00;;;;;;5073264;28;20610;-78
2022/10/28 12:44:28;;;;;;;8.27;3.28;;;23.90;97.30;;;;;;5073186;28;20594;-79
2022/10/28 12:47:03;;;;;;;8.77;3.40;;;24.10;97.20;;;;;;5073257;28;20228;-80
2022/10/28 12:49:39;;;;;;;6.80;3.38;;;24.10;97.40;;;;;;5073289;28;20218;-78
2022/10/28 12:52:16;;;;;;;7.30;3.20;;;24.30;97.90;;;;;;5073039;28;20254;-78